Terminal Aerodrome Forecast
Issued by NWS Duluth, MN

Home | Current Version | Previous Version | Text Only | Print | Product List | Glossary On
Versions: 1 2 3 4 5 6 7 8 9 10 11 12 13 14 15 16 17 18 19 20 21 22 23 24 25 26 27 28 29 30 31 32 33 34 35
474
FTUS43 KDLH 240802 AAC
TAFDLH
TAF AMD
KDLH 240802Z 2408/2506 00000KT 1 1/2SM -DZ BR OVC003
     FM241700 03010KT 5SM BR SCT008 OVC012
     FM242000 06008KT P6SM OVC025=

USA.gov is the U.S. government's official web portal to all federal, state and local government web resources and services.